Time;durP1;ratioP1;P1;durP2;ratioP2;P2;SDS_P1;SDS_P2;PMS_P1;PMS_P2;Temp;Humidity;BMP_temperature;BMP_pressure;BME280_temperature;BME280_humidity;BME280_pressure;Samples;Min_cycle;Max_cycle;Signal;HPM_P1;HPM_P2
2022/03/27 00:00:26;;;;;;;;;;;;;;;10.74;62.57;101361.22;5029039;28;19929;-64
2022/03/27 00:03:10;;;;;;;;;;;;;;;10.73;62.58;101362.03;5029252;28;19928;-64
2022/03/27 00:05:54;;;;;;;;;;;;;;;10.73;62.64;101364.63;5015465;28;19931;-64
2022/03/27 00:08:38;;;;;;;;;;;;;;;10.74;62.73;101366.41;5015936;28;19983;-64
2022/03/27 00:11:26;;;;;;;;;;;;;;;10.73;62.74;101359.47;5015219;28;20296;-64
2022/03/27 00:14:09;;;;;;;;;;;;;;;10.73;62.76;101367.22;5015985;28;19928;-64
2022/03/27 00:16:53;;;;;;;;;;;;;;;10.73;62.86;101367.22;5015676;28;20458;-64
2022/03/27 00:19:37;;;;;;;;;;;;;;;10.72;62.70;101366.38;5015539;28;20022;-64
2022/03/27 00:22:22;;;;;;;;;;;;;;;10.71;62.71;101363.69;5014880;28;20028;-64
2022/03/27 00:25:07;;;;;;;;;;;;;;;10.70;62.91;101370.59;5014646;28;19967;-64
2022/03/27 00:27:51;;;;;;;;;;;;;;;10.68;62.99;101359.28;5015706;28;19929;-65
2022/03/27 00:30:35;;;;;;;;;;;;;;;10.67;62.96;101349.75;5015042;28;20030;-64
2022/03/27 00:33:19;;;;;;;;;;;;;;;10.68;62.97;101355.81;5015724;28;19987;-64
2022/03/27 00:36:04;;;;;;;;;;;;;;;10.66;63.24;101351.47;5015482;28;20365;-65
2022/03/27 00:38:48;;;;;;;;;;;;;;;10.66;63.17;101351.47;5015418;28;19944;-64
2022/03/27 00:41:32;;;;;;;;;;;;;;;10.65;63.26;101349.69;5015415;28;19975;-65
2022/03/27 00:44:16;;;;;;;;;;;;;;;10.64;63.07;101355.72;5015106;28;19929;-64
2022/03/27 00:47:00;;;;;;;;;;;;;;;10.64;63.07;101344.44;5028727;28;19928;-64
2022/03/27 00:49:44;;;;;;;;;;;;;;;10.65;63.30;101349.69;5014947;28;20347;-64
2022/03/27 00:52:28;;;;;;;;;;;;;;;10.63;63.38;101351.34;5028364;28;19948;-64
2022/03/27 00:55:12;;;;;;;;;;;;;;;10.64;63.35;101349.63;5028279;28;19968;-64
2022/03/27 00:57:56;;;;;;;;;;;;;;;10.62;63.01;101352.19;5014178;28;19972;-64
2022/03/27 01:00:43;;;;;;;;;;;;;;;10.61;63.28;101355.59;5014715;28;19943;-64
2022/03/27 01:03:28;;;;;;;;;;;;;;;10.61;63.07;101341.72;5027940;28;19929;-65
2022/03/27 01:06:26;;;;;;;;;;;;;;;10.63;63.21;101353.03;5028027;28;19928;-64
2022/03/27 01:09:35;;;;;;;;;;;;;;;10.61;63.31;101342.63;5014482;28;19929;-64
2022/03/27 01:12:22;;;;;;;;;;;;;;;10.62;63.25;101344.41;5014714;28;19944;-64
2022/03/27 01:15:21;;;;;;;;;;;;;;;10.62;63.59;101352.19;5027963;28;19928;-64
2022/03/27 01:18:06;;;;;;;;;;;;;;;10.59;63.27;101339.09;5027480;28;19971;-65
2022/03/27 01:20:50;;;;;;;;;;;;;;;10.60;63.15;101335.69;5027821;28;19975;-64
2022/03/27 01:23:34;;;;;;;;;;;;;;;10.59;63.49;101336.50;5015001;28;19972;-64
2022/03/27 01:26:18;;;;;;;;;;;;;;;10.57;63.72;101332.97;5014814;28;19929;-65
2022/03/27 01:29:02;;;;;;;;;;;;;;;10.57;63.23;101332.09;5027628;28;19929;-64
2022/03/27 01:31:47;;;;;;;;;;;;;;;10.57;63.53;101335.56;5014891;28;20023;-64
2022/03/27 01:34:32;;;;;;;;;;;;;;;10.57;63.30;101337.28;5013377;28;20284;-65
2022/03/27 01:37:16;;;;;;;;;;;;;;;10.57;63.52;101337.28;5014785;28;19929;-64
2022/03/27 01:40:00;;;;;;;;;;;;;;;10.56;63.36;101328.59;5027447;28;19989;-64
2022/03/27 01:42:44;;;;;;;;;;;;;;;10.57;63.84;101330.38;5027190;28;19929;-64
2022/03/27 01:45:28;;;;;;;;;;;;;;;10.58;63.33;101337.31;5027767;28;19928;-64
2022/03/27 01:48:12;;;;;;;;;;;;;;;10.60;63.61;101335.69;5013400;28;20024;-65
2022/03/27 01:51:01;;;;;;;;;;;;;;;10.61;63.71;101324.47;5014158;28;20032;-65
2022/03/27 01:53:45;;;;;;;;;;;;;;;10.58;63.46;101329.56;5026988;28;19928;-64
2022/03/27 01:56:29;;;;;;;;;;;;;;;10.55;63.69;101324.25;5014205;28;19995;-64
2022/03/27 01:59:13;;;;;;;;;;;;;;;10.53;63.79;101320.72;5014155;28;19948;-64
2022/03/27 02:01:58;;;;;;;;;;;;;;;10.54;63.85;101313.84;5012744;28;20009;-64
2022/03/27 02:04:42;;;;;;;;;;;;;;;10.51;63.63;101320.66;5013622;28;20044;-64
2022/03/27 02:07:27;;;;;;;;;;;;;;;10.53;63.60;101318.13;5014945;28;19988;-64
2022/03/27 02:10:11;;;;;;;;;;;;;;;10.53;63.78;101327.63;5018138;28;19929;-64
2022/03/27 02:12:55;;;;;;;;;;;;;;;10.53;63.53;101328.50;5018273;28;20412;-64
2022/03/27 02:15:39;;;;;;;;;;;;;;;10.51;63.94;101320.66;5030981;28;19936;-64
2022/03/27 02:18:28;;;;;;;;;;;;;;;10.51;63.90;101324.94;5030976;28;19972;-64
2022/03/27 02:21:12;;;;;;;;;;;;;;;10.51;63.92;101320.66;5030691;28;19929;-64
2022/03/27 02:23:56;;;;;;;;;;;;;;;10.52;63.98;101326.72;5017593;28;19975;-64
2022/03/27 02:26:44;;;;;;;;;;;;;;;10.53;63.98;101331.09;5031288;28;19928;-64
2022/03/27 02:29:28;;;;;;;;;;;;;;;10.52;63.92;101329.31;5030648;28;19975;-65
2022/03/27 02:32:12;;;;;;;;;;;;;;;10.52;64.03;101329.31;5017733;28;20300;-65
2022/03/27 02:34:56;;;;;;;;;;;;;;;10.53;63.81;101330.22;5016883;28;19928;-64
2022/03/27 02:37:40;;;;;;;;;;;;;;;10.51;63.74;101327.53;5017492;28;19928;-64
2022/03/27 02:40:24;;;;;;;;;;;;;;;10.50;64.12;101326.69;5017728;28;20435;-65
2022/03/27 02:43:09;;;;;;;;;;;;;;;10.50;63.68;101326.69;5017263;28;19928;-64
2022/03/27 02:45:54;;;;;;;;;;;;;;;10.50;64.12;101334.47;5016067;28;20458;-64
2022/03/27 02:48:38;;;;;;;;;;;;;;;10.50;63.91;101336.19;5017609;28;19929;-64
2022/03/27 02:51:22;;;;;;;;;;;;;;;10.50;63.85;101326.69;5016727;28;19929;-64
2022/03/27 02:54:07;;;;;;;;;;;;;;;10.53;63.69;101331.09;5016879;28;19944;-64
2022/03/27 02:56:52;;;;;;;;;;;;;;;10.53;64.31;101328.50;5017724;28;19928;-64
2022/03/27 02:59:36;;;;;;;;;;;;;;;10.56;63.97;101327.75;5016031;28;19975;-64
2022/03/27 03:02:20;;;;;;;;;;;;;;;10.53;63.92;101325.03;5017018;28;19968;-64
2022/03/27 03:05:04;;;;;;;;;;;;;;;10.49;63.82;101316.25;5016410;28;19971;-64
2022/03/27 03:07:49;;;;;;;;;;;;;;;10.47;64.02;101320.50;5017253;28;20300;-64
2022/03/27 03:10:33;;;;;;;;;;;;;;;10.44;63.88;101312.63;5029723;28;19928;-64
2022/03/27 03:13:16;;;;;;;;;;;;;;;10.44;64.12;101315.22;5016280;28;19929;-64
2022/03/27 03:16:01;;;;;;;;;;;;;;;10.45;64.00;101314.38;5016735;28;19928;-64
2022/03/27 03:18:45;;;;;;;;;;;;;;;10.45;64.00;101310.06;5029892;28;19928;-65
2022/03/27 03:21:30;;;;;;;;;;;;;;;10.47;64.31;101318.78;5015918;28;19968;-64
2022/03/27 03:24:14;;;;;;;;;;;;;;;10.49;64.14;101311.94;5016847;28;19971;-64
2022/03/27 03:26:58;;;;;;;;;;;;;;;10.50;63.97;101308.53;5016566;28;19927;-64
2022/03/27 03:29:42;;;;;;;;;;;;;;;10.50;64.33;101318.91;5016693;28;19929;-65
2022/03/27 03:32:26;;;;;;;;;;;;;;;10.52;64.10;101318.94;5029347;28;19974;-64
2022/03/27 03:35:10;;;;;;;;;;;;;;;10.52;63.94;101313.75;5016420;28;19976;-64
2022/03/27 03:37:54;;;;;;;;;;;;;;;10.53;64.38;101301.69;5016829;28;19932;-66
2022/03/27 03:40:40;;;;;;;;;;;;;;;10.51;64.32;101302.53;5015914;28;19979;-64
2022/03/27 03:43:24;;;;;;;;;;;;;;;10.50;64.28;101295.56;5029927;28;19959;-64
2022/03/27 03:46:08;;;;;;;;;;;;;;;10.49;64.08;101295.53;5028931;28;20003;-65
2022/03/27 03:48:52;;;;;;;;;;;;;;;10.45;64.17;101298.84;5016013;28;19929;-64
2022/03/27 03:51:37;;;;;;;;;;;;;;;10.42;64.15;101303.91;5029386;28;20296;-64
2022/03/27 03:54:20;;;;;;;;;;;;;;;10.40;64.43;101311.63;5015777;28;19928;-64
2022/03/27 03:57:05;;;;;;;;;;;;;;;10.40;64.42;101305.53;5015985;28;19936;-64
2022/03/27 03:59:49;;;;;;;;;;;;;;;10.37;64.50;101311.47;5029416;28;20289;-64
2022/03/27 04:02:33;;;;;;;;;;;;;;;10.36;64.12;101307.13;5016093;28;19928;-64
2022/03/27 04:05:17;;;;;;;;;;;;;;;10.36;64.50;101304.53;5029291;28;19941;-64
2022/03/27 04:08:01;;;;;;;;;;;;;;;10.34;64.46;101304.47;5015630;28;19967;-64
2022/03/27 04:10:46;;;;;;;;;;;;;;;10.36;64.39;101307.97;5016183;28;20024;-64
2022/03/27 04:13:30;;;;;;;;;;;;;;;10.35;64.30;101300.16;5015684;28;19929;-64
2022/03/27 04:16:13;;;;;;;;;;;;;;;10.35;64.18;101305.34;5015576;28;19972;-64
2022/03/27 04:18:57;;;;;;;;;;;;;;;10.34;64.62;101301.00;5028702;28;19928;-64
2022/03/27 04:21:42;;;;;;;;;;;;;;;10.31;64.54;101304.34;5015611;28;19968;-64
2022/03/27 04:24:26;;;;;;;;;;;;;;;10.31;64.37;101296.59;5015843;28;19928;-64
2022/03/27 04:27:10;;;;;;;;;;;;;;;10.31;64.62;101295.69;5015598;28;19929;-64
2022/03/27 04:29:53;;;;;;;;;;;;;;;10.27;64.80;101292.09;5013844;28;19929;-64
2022/03/27 04:32:38;;;;;;;;;;;;;;;10.29;64.71;101294.75;5015425;28;19933;-64
2022/03/27 04:35:22;;;;;;;;;;;;;;;10.27;64.90;101293.81;5015171;28;19929;-64
2022/03/27 04:38:06;;;;;;;;;;;;;;;10.27;64.80;101293.81;5015604;28;19936;-64
2022/03/27 04:40:50;;;;;;;;;;;;;;;10.25;64.91;101300.66;5015662;28;19968;-65
2022/03/27 04:43:35;;;;;;;;;;;;;;;10.25;64.70;101295.47;5015546;28;20447;-64
2022/03/27 04:46:18;;;;;;;;;;;;;;;10.24;64.62;101299.75;5015013;28;19928;-64
2022/03/27 04:49:03;;;;;;;;;;;;;;;10.23;64.79;101300.56;5015157;28;20011;-65
2022/03/27 04:51:47;;;;;;;;;;;;;;;10.21;64.96;101295.34;5015244;28;19929;-63
2022/03/27 04:54:32;;;;;;;;;;;;;;;10.21;64.97;101300.53;5028039;28;19928;-65
2022/03/27 04:57:16;;;;;;;;;;;;;;;10.20;65.02;101298.78;5015160;28;19944;-65
2022/03/27 05:00:01;;;;;;;;;;;;;;;10.19;65.07;101291.81;5028348;28;20017;-64
2022/03/27 05:02:45;;;;;;;;;;;;;;;10.19;65.00;101296.13;5014943;28;20423;-64
2022/03/27 05:05:30;;;;;;;;;;;;;;;10.18;64.88;101289.19;5014764;28;19929;-64
2022/03/27 05:08:13;;;;;;;;;;;;;;;10.18;65.09;101294.38;5028052;28;19928;-64
2022/03/27 05:10:57;;;;;;;;;;;;;;;10.19;65.15;101285.78;5015031;28;19928;-64
2022/03/27 05:13:41;;;;;;;;;;;;;;;10.18;65.21;101296.97;5028232;28;19929;-64
2022/03/27 05:16:25;;;;;;;;;;;;;;;10.16;64.96;101294.28;5015015;28;19944;-64
2022/03/27 05:19:09;;;;;;;;;;;;;;;10.16;65.16;101296.00;5015080;28;19975;-64
2022/03/27 05:21:53;;;;;;;;;;;;;;;10.14;65.04;101298.53;5014729;28;19980;-64
2022/03/27 05:24:37;;;;;;;;;;;;;;;10.15;65.19;101304.59;5014902;28;19967;-64
2022/03/27 05:27:21;;;;;;;;;;;;;;;10.15;65.23;101302.00;5014488;28;19972;-64
2022/03/27 05:30:05;;;;;;;;;;;;;;;10.14;65.29;101303.69;5013458;28;19932;-64
2022/03/27 05:32:50;;;;;;;;;;;;;;;10.14;64.85;101308.03;5014531;28;20332;-64
2022/03/27 05:35:34;;;;;;;;;;;;;;;10.13;65.13;101306.25;5014729;28;20419;-64
2022/03/27 05:38:18;;;;;;;;;;;;;;;10.13;65.17;101306.25;5027288;28;19928;-64
2022/03/27 05:41:02;;;;;;;;;;;;;;;10.12;65.30;101304.47;5013362;28;19929;-64
2022/03/27 05:43:46;;;;;;;;;;;;;;;10.11;64.97;101311.38;5013858;28;19984;-64
2022/03/27 05:46:30;;;;;;;;;;;;;;;10.11;65.16;101315.66;5027465;28;20427;-64
2022/03/27 05:49:13;;;;;;;;;;;;;;;10.10;65.32;101312.22;5014473;28;19975;-65
2022/03/27 05:51:57;;;;;;;;;;;;;;;10.09;65.41;101315.63;5014245;28;19968;-64
2022/03/27 05:54:41;;;;;;;;;;;;;;;10.09;65.17;101319.91;5014123;28;20400;-64
2022/03/27 05:57:26;;;;;;;;;;;;;;;10.08;65.45;101329.41;5014358;28;19932;-64
2022/03/27 06:00:12;;;;;;;;;;;;;;;10.08;65.46;101328.50;5013703;28;19967;-64
2022/03/27 06:02:56;;;;;;;;;;;;;;;10.08;65.49;101336.25;5027081;28;20288;-64
2022/03/27 06:05:39;;;;;;;;;;;;;;;10.07;65.60;101332.81;5013892;28;19971;-64
2022/03/27 06:08:23;;;;;;;;;;;;;;;10.05;65.29;101335.31;5014269;28;20325;-65
2022/03/27 06:11:07;;;;;;;;;;;;;;;10.04;65.62;101348.22;5013997;28;19928;-64
2022/03/27 06:13:51;;;;;;;;;;;;;;;10.04;65.46;101338.72;5013865;28;20344;-64
2022/03/27 06:16:36;;;;;;;;;;;;;;;10.05;65.63;101352.59;5014188;28;20059;-64
2022/03/27 06:19:20;;;;;;;;;;;;;;;10.04;65.28;101348.22;5027243;28;20060;-64
2022/03/27 06:22:04;;;;;;;;;;;;;;;10.05;65.54;101350.00;5012677;28;19932;-64
2022/03/27 06:24:48;;;;;;;;;;;;;;;10.04;65.74;101348.22;5013293;28;19971;-64
2022/03/27 06:27:32;;;;;;;;;;;;;;;10.04;65.90;101356.88;5013003;28;19928;-64
2022/03/27 06:30:17;;;;;;;;;;;;;;;10.03;65.56;101352.53;5013662;28;19959;-64
2022/03/27 06:33:02;;;;;;;;;;;;;;;10.03;65.87;101367.19;5013879;28;19928;-64
2022/03/27 06:35:46;;;;;;;;;;;;;;;10.04;65.43;101359.44;5027105;28;20287;-64
2022/03/27 06:38:30;;;;;;;;;;;;;;;10.04;65.90;101361.16;5027189;28;19929;-64
2022/03/27 06:41:14;;;;;;;;;;;;;;;10.04;66.01;101361.16;5013748;28;19944;-64
2022/03/27 06:43:58;;;;;;;;;;;;;;;10.03;66.00;101362.00;5013300;28;19991;-63
2022/03/27 06:46:42;;;;;;;;;;;;;;;10.03;66.09;101351.63;5013773;28;19927;-65
2022/03/27 06:49:26;;;;;;;;;;;;;;;10.03;65.99;101354.22;5012388;28;19988;-64
2022/03/27 06:52:10;;;;;;;;;;;;;;;10.02;65.99;101349.88;5013328;28;19929;-64
2022/03/27 06:54:54;;;;;;;;;;;;;;;10.02;65.80;101355.03;5016506;28;19975;-64
2022/03/27 06:57:38;;;;;;;;;;;;;;;10.01;65.98;101354.19;5017304;28;19929;-64
2022/03/27 07:03:25;;;;;;;;;;;;;;;10.02;66.17;101355.94;5017624;28;19933;-64
2022/03/27 07:06:10;;;;;;;;;;;;;;;10.02;66.01;101361.13;5017094;28;19968;-64
2022/03/27 07:08:56;;;;;;;;;;;;;;;10.00;65.98;101360.19;5029804;28;19932;-64
2022/03/27 07:11:40;;;;;;;;;;;;;;;10.01;66.29;101355.88;5030122;28;19929;-64
2022/03/27 07:14:24;;;;;;;;;;;;;;;10.00;66.06;101360.19;5015856;28;19983;-65
2022/03/27 07:17:08;;;;;;;;;;;;;;;9.99;66.30;101362.69;5016904;28;19928;-64
2022/03/27 07:19:52;;;;;;;;;;;;;;;10.01;66.21;101361.03;5029768;28;19928;-64
2022/03/27 07:22:36;;;;;;;;;;;;;;;9.99;66.49;101368.78;5016677;28;19929;-63
2022/03/27 07:25:21;;;;;;;;;;;;;;;9.99;66.19;101361.00;5017100;28;19967;-64
2022/03/27 07:28:06;;;;;;;;;;;;;;;9.99;66.13;101361.00;5016600;28;19931;-64
2022/03/27 07:30:50;;;;;;;;;;;;;;;9.96;66.50;101363.47;5029906;28;19928;-64
2022/03/27 07:33:35;;;;;;;;;;;;;;;9.96;66.45;101358.28;5016530;28;20451;-64
2022/03/27 07:36:18;;;;;;;;;;;;;;;9.96;66.72;101363.47;5016170;28;20408;-64
2022/03/27 07:39:03;;;;;;;;;;;;;;;9.97;66.75;101365.22;5016904;28;20429;-64
2022/03/27 07:41:47;;;;;;;;;;;;;;;9.98;66.31;101359.22;5029584;28;19928;-64
2022/03/27 07:44:31;;;;;;;;;;;;;;;10.01;66.38;101361.03;5015302;28;20399;-63
2022/03/27 07:47:15;;;;;;;;;;;;;;;9.97;66.75;101365.22;5016595;28;19951;-64
2022/03/27 07:49:59;;;;;;;;;;;;;;;9.98;67.00;101366.09;5029365;28;20020;-64
2022/03/27 07:52:44;;;;;;;;;;;;;;;9.99;66.66;101366.19;5029155;28;19952;-64
2022/03/27 07:55:29;;;;;;;;;;;;;;;10.00;66.47;101364.47;5016613;28;19963;-64
2022/03/27 07:58:12;;;;;;;;;;;;;;;9.97;66.83;101364.34;5016185;28;19928;-64
2022/03/27 08:00:57;;;;;;;;;;;;;;;9.99;66.71;101368.78;5016448;28;19944;-64
2022/03/27 08:03:41;;;;;;;;;;;;;;;9.97;66.84;101367.81;5016057;28;19972;-64
2022/03/27 08:06:25;;;;;;;;;;;;;;;9.98;66.91;101368.69;5015158;28;19937;-64
2022/03/27 08:09:09;;;;;;;;;;;;;;;9.97;67.15;101370.41;5015930;28;19929;-64
2022/03/27 08:11:55;;;;;;;;;;;;;;;9.97;67.31;101365.22;5015910;28;20012;-64
2022/03/27 08:14:39;;;;;;;;;;;;;;;9.98;67.26;101363.50;5015901;28;19928;-64
2022/03/27 08:17:23;;;;;;;;;;;;;;;9.99;66.85;101361.00;5015382;28;19945;-64
2022/03/27 08:20:08;;;;;;;;;;;;;;;9.98;67.38;101364.41;5015883;28;19944;-64
2022/03/27 08:22:53;;;;;;;;;;;;;;;10.00;67.34;101367.03;5015707;28;20336;-64
2022/03/27 08:28:40;;;;;;;;;;;;;;;10.02;67.42;101370.59;5015727;28;19972;-64
2022/03/27 08:31:23;;;;;;;;;;;;;;;10.02;67.31;101374.06;5015503;28;20420;-64
2022/03/27 08:34:07;;;;;;;;;;;;;;;10.03;67.31;101373.25;5015285;28;20344;-63
2022/03/27 08:36:51;;;;;;;;;;;;;;;10.04;67.04;101375.00;5014364;28;19959;-63
2022/03/27 08:39:36;;;;;;;;;;;;;;;10.05;67.09;101379.34;5015477;28;19933;-64
2022/03/27 08:42:20;;;;;;;;;;;;;;;10.05;67.09;101374.16;5015021;28;20447;-64
2022/03/27 08:45:04;;;;;;;;;;;;;;;10.06;67.42;101380.25;5028006;28;19928;-64
2022/03/27 08:47:47;;;;;;;;;;;;;;;10.04;67.35;101375.00;5028008;28;20079;-64
2022/03/27 08:50:37;;;;;;;;;;;;;;;10.05;67.41;101381.06;5015091;28;19967;-64
2022/03/27 08:53:28;;;;;;;;;;;;;;;10.05;67.04;101381.06;5014505;28;19943;-64
2022/03/27 08:56:14;;;;;;;;;;;;;;;10.04;67.37;101381.91;5028413;28;19975;-64
2022/03/27 08:59:03;;;;;;;;;;;;;;;10.04;67.67;101379.31;5015099;28;20434;-64
2022/03/27 09:01:47;;;;;;;;;;;;;;;10.04;67.40;101390.53;5027863;28;19928;-64
2022/03/27 09:04:31;;;;;;;;;;;;;;;10.05;67.49;101394.03;5015051;28;19927;-64
2022/03/27 09:07:15;;;;;;;;;;;;;;;10.06;67.69;101394.06;5014740;28;19932;-64
2022/03/27 09:10:03;;;;;;;;;;;;;;;10.05;67.23;101388.84;5014893;28;19929;-64
2022/03/27 09:12:47;;;;;;;;;;;;;;;10.04;67.48;101398.31;5028124;28;19974;-64
2022/03/27 09:15:31;;;;;;;;;;;;;;;10.03;67.81;101393.97;5027980;28;19928;-64
2022/03/27 09:18:16;;;;;;;;;;;;;;;10.04;67.64;101394.84;5027572;28;19988;-64
2022/03/27 09:21:00;;;;;;;;;;;;;;;10.05;67.51;101391.44;5015014;28;19945;-64
2022/03/27 09:23:50;;;;;;;;;;;;;;;10.05;67.83;101387.13;5027771;28;20304;-64
2022/03/27 09:26:35;;;;;;;;;;;;;;;10.05;67.74;101391.44;5014532;28;20455;-64
2022/03/27 09:29:20;;;;;;;;;;;;;;;10.05;67.86;101391.44;5013669;28;19929;-65
2022/03/27 09:32:03;;;;;;;;;;;;;;;10.04;68.04;101394.84;5027460;28;20011;-64
2022/03/27 09:35:17;;;;;;;;;;;;;;;10.03;67.77;101383.63;5014308;28;19944;-64
2022/03/27 09:38:20;;;;;;;;;;;;;;;10.05;67.83;101391.44;5021896;28;20036;-64
2022/03/27 09:41:05;;;;;;;;;;;;;;;10.06;67.90;101385.44;5013499;28;20344;-64
2022/03/27 09:44:03;;;;;;;;;;;;;;;10.04;67.91;101395.72;5014399;28;19928;-64
2022/03/27 09:46:50;;;;;;;;;;;;;;;10.05;68.05;101389.72;5027290;28;19928;-64
2022/03/27 09:49:34;;;;;;;;;;;;;;;10.06;68.04;101395.78;5027336;28;19944;-64
2022/03/27 09:52:19;;;;;;;;;;;;;;;10.06;67.97;101388.91;5027036;28;19974;-64
2022/03/27 09:55:07;;;;;;;;;;;;;;;10.08;67.96;101388.06;5027204;28;19951;-64
2022/03/27 09:57:57;;;;;;;;;;;;;;;10.06;68.21;101391.47;5027465;28;19936;-64
2022/03/27 10:00:42;;;;;;;;;;;;;;;10.08;67.85;101388.06;5027004;28;19972;-63
2022/03/27 10:03:26;;;;;;;;;;;;;;;10.08;67.78;101382.88;5014632;28;19928;-64
2022/03/27 10:06:25;;;;;;;;;;;;;;;10.08;68.15;101378.63;5014411;28;19928;-64
2022/03/27 10:09:11;;;;;;;;;;;;;;;10.09;68.03;101382.06;5013958;28;19944;-63
2022/03/27 10:11:56;;;;;;;;;;;;;;;10.09;68.11;101376.88;5027390;28;20059;-64
2022/03/27 10:14:41;;;;;;;;;;;;;;;10.10;67.84;101370.88;5013931;28;20276;-64
2022/03/27 10:17:27;;;;;;;;;;;;;;;10.09;68.17;101372.59;5026753;28;19948;-64
2022/03/27 10:20:14;;;;;;;;;;;;;;;10.09;67.94;101371.72;5026952;28;19929;-64
2022/03/27 10:23:09;;;;;;;;;;;;;;;10.10;68.14;101376.97;5026876;28;19972;-64
2022/03/27 10:26:03;;;;;;;;;;;;;;;10.12;68.17;101374.44;5026714;28;19975;-64
2022/03/27 10:28:49;;;;;;;;;;;;;;;10.12;68.35;101369.25;5028172;28;19949;-64
2022/03/27 10:31:34;;;;;;;;;;;;;;;10.12;68.03;101369.25;5030893;28;20002;-63
2022/03/27 10:34:19;;;;;;;;;;;;;;;10.13;67.94;101371.88;5030635;28;19996;-64
2022/03/27 10:37:10;;;;;;;;;;;;;;;10.14;68.20;101365.88;5017419;28;19974;-64
2022/03/27 10:40:01;;;;;;;;;;;;;;;10.13;68.48;101363.25;5030640;28;19979;-63
2022/03/27 10:43:00;;;;;;;;;;;;;;;10.15;68.06;101359.00;5016785;28;19928;-64
2022/03/27 10:45:44;;;;;;;;;;;;;;;10.15;68.04;101353.81;5017842;28;20025;-64
2022/03/27 10:48:34;;;;;;;;;;;;;;;10.14;68.53;101352.06;5017081;28;19928;-64
2022/03/27 10:51:25;;;;;;;;;;;;;;;10.16;68.34;101342.66;5017491;28;20397;-64
2022/03/27 10:54:14;;;;;;;;;;;;;;;10.16;68.30;101348.69;5030756;28;19976;-64
2022/03/27 10:56:58;;;;;;;;;;;;;;;10.15;68.25;101346.06;5030628;28;19928;-64
2022/03/27 10:59:43;;;;;;;;;;;;;;;10.16;68.43;101343.50;5030682;28;19944;-64
2022/03/27 11:02:46;;;;;;;;;;;;;;;10.18;68.08;101339.28;5030117;28;19975;-64
2022/03/27 11:05:36;;;;;;;;;;;;;;;10.21;68.09;101334.22;5030519;28;19928;-64
2022/03/27 11:08:20;;;;;;;;;;;;;;;10.21;68.12;101330.72;5030388;28;19928;-64
2022/03/27 11:11:04;;;;;;;;;;;;;;;10.23;68.36;101333.41;5030320;28;19928;-64
2022/03/27 11:13:47;;;;;;;;;;;;;;;10.25;68.27;101322.25;5017377;28;19976;-64
2022/03/27 11:16:33;;;;;;;;;;;;;;;10.28;68.33;101321.47;5030454;28;19928;-64
2022/03/27 11:19:35;;;;;;;;;;;;;;;10.30;67.89;101322.41;5029971;28;19972;-63
2022/03/27 11:22:39;;;;;;;;;;;;;;;10.29;68.47;101313.78;5029742;28;19928;-64
2022/03/27 11:25:23;;;;;;;;;;;;;;;10.31;68.34;101313.81;5016951;28;19992;-64
2022/03/27 11:28:11;;;;;;;;;;;;;;;10.33;68.28;101296.63;5016992;28;20423;-64
2022/03/27 11:31:15;;;;;;;;;;;;;;;10.35;67.92;101306.22;5029987;28;20396;-64
2022/03/27 11:34:05;;;;;;;;;;;;;;;10.38;67.78;101300.31;5016703;28;20419;-64
2022/03/27 11:37:09;;;;;;;;;;;;;;;10.39;68.34;101283.03;5029450;28;20380;-64
2022/03/27 11:39:53;;;;;;;;;;;;;;;10.41;68.06;101283.97;5015604;28;19945;-64
2022/03/27 11:42:38;;;;;;;;;;;;;;;10.40;68.30;101284.81;5016117;28;20340;-64
2022/03/27 11:45:24;;;;;;;;;;;;;;;10.41;68.58;101291.75;5016248;28;19983;-64
2022/03/27 11:48:14;;;;;;;;;;;;;;;10.42;68.58;101296.13;5016679;28;20399;-63
2022/03/27 11:50:58;;;;;;;;;;;;;;;10.43;68.33;101303.06;5016690;28;19964;-64
2022/03/27 11:53:42;;;;;;;;;;;;;;;10.44;68.71;101297.06;5029153;28;19944;-63
2022/03/27 11:56:26;;;;;;;;;;;;;;;10.46;68.56;101298.00;5016458;28;20430;-64
2022/03/27 11:59:10;;;;;;;;;;;;;;;10.44;68.78;101297.06;5016246;28;19952;-63
2022/03/27 12:01:55;;;;;;;;;;;;;;;10.46;68.84;101293.69;5016271;28;19929;-65
2022/03/27 12:04:52;;;;;;;;;;;;;;;10.48;68.79;101280.81;5015147;28;19944;-63
2022/03/27 12:07:56;;;;;;;;;;;;;;;10.51;68.57;101280.88;5028948;28;19928;-63
2022/03/27 12:10:43;;;;;;;;;;;;;;;10.49;68.76;101277.38;5029141;28;20021;-64
2022/03/27 12:13:28;;;;;;;;;;;;;;;10.46;68.86;101278.13;5015774;28;19928;-63
2022/03/27 12:16:15;;;;;;;;;;;;;;;10.46;68.67;101278.13;5028427;28;19928;-63
2022/03/27 12:19:11;;;;;;;;;;;;;;;10.48;68.70;101275.63;5029182;28;19955;-63
2022/03/27 12:21:54;;;;;;;;;;;;;;;10.51;68.79;101270.53;5015655;28;19971;-63
2022/03/27 12:24:42;;;;;;;;;;;;;;;10.53;68.56;101268.88;5015994;28;19952;-64
2022/03/27 12:30:33;;;;;;;;;;;;;;;10.57;68.52;101257.78;5015600;28;19976;-64
2022/03/27 12:33:19;;;;;;;;;;;;;;;10.59;68.81;101261.31;5028889;28;19928;-64
2022/03/27 12:36:09;;;;;;;;;;;;;;;10.59;69.09;101253.53;5015247;28;20075;-64
2022/03/27 12:38:53;;;;;;;;;;;;;;;10.61;68.77;101249.31;5028399;28;19967;-64
2022/03/27 12:41:38;;;;;;;;;;;;;;;10.63;69.12;101244.16;5014937;28;19984;-63
2022/03/27 12:44:22;;;;;;;;;;;;;;;10.65;68.75;101243.41;5028458;28;19944;-64
2022/03/27 12:47:06;;;;;;;;;;;;;;;10.65;69.22;101235.63;5014350;28;20454;-64
2022/03/27 12:49:50;;;;;;;;;;;;;;;10.67;69.08;101240.84;5015380;28;19927;-64
2022/03/27 12:52:42;;;;;;;;;;;;;;;10.66;69.20;101234.81;5014936;28;20003;-63
2022/03/27 12:55:39;;;;;;;;;;;;;;;10.64;69.06;101227.78;5028618;28;19943;-63
2022/03/27 12:58:29;;;;;;;;;;;;;;;10.65;69.16;101229.53;5028367;28;19966;-64
2022/03/27 13:01:20;;;;;;;;;;;;;;;10.69;68.96;101227.94;5014610;28;19929;-64
2022/03/27 13:04:10;;;;;;;;;;;;;;;10.71;69.31;101223.69;5027859;28;19975;-64
2022/03/27 13:07:03;;;;;;;;;;;;;;;10.71;68.93;101223.69;5027718;28;20412;-65
2022/03/27 13:09:53;;;;;;;;;;;;;;;10.74;69.29;101227.28;5027599;28;20361;-64
2022/03/27 13:12:37;;;;;;;;;;;;;;;10.74;69.05;101219.50;5027659;28;19928;-64
2022/03/27 13:15:40;;;;;;;;;;;;;;;10.75;68.95;101215.19;5014606;28;19929;-63
2022/03/27 13:18:31;;;;;;;;;;;;;;;10.75;68.89;101210.00;5027865;28;19927;-64
2022/03/27 13:21:15;;;;;;;;;;;;;;;10.77;69.04;101211.81;5014547;28;20351;-63
2022/03/27 13:23:59;;;;;;;;;;;;;;;10.80;68.87;101204.13;5014224;28;19964;-64
2022/03/27 13:26:47;;;;;;;;;;;;;;;10.80;69.13;101196.34;5014473;28;19928;-64
2022/03/27 13:29:32;;;;;;;;;;;;;;;10.80;68.99;101198.94;5027174;28;19945;-63
2022/03/27 13:32:18;;;;;;;;;;;;;;;10.84;69.01;101193.88;5014205;28;20206;-64
2022/03/27 13:35:03;;;;;;;;;;;;;;;10.83;69.15;101192.97;5013750;28;20023;-64
2022/03/27 13:37:49;;;;;;;;;;;;;;;10.84;69.15;101183.50;5013432;28;20063;-64
2022/03/27 13:43:35;;;;;;;;;;;;;;;10.86;69.00;101192.22;5014809;28;19933;-64
2022/03/27 13:46:20;;;;;;;;;;;;;;;10.82;68.92;101179.13;5013923;28;19928;-64
2022/03/27 13:49:04;;;;;;;;;;;;;;;10.84;68.99;101176.59;5013811;28;19928;-64
2022/03/27 13:51:48;;;;;;;;;;;;;;;10.86;69.05;101169.75;5014442;28;20280;-64
2022/03/27 13:54:32;;;;;;;;;;;;;;;10.88;69.42;101177.59;5027661;28;19929;-64
2022/03/27 13:57:16;;;;;;;;;;;;;;;10.88;69.11;101173.28;5014263;28;20288;-63
2022/03/27 14:00:00;;;;;;;;;;;;;;;10.88;68.89;101169.81;5014091;28;19972;-64
2022/03/27 14:02:44;;;;;;;;;;;;;;;10.85;68.92;101165.38;5013827;28;19967;-64
2022/03/27 14:05:28;;;;;;;;;;;;;;;10.86;68.87;101163.69;5014058;28;19944;-64
2022/03/27 14:08:12;;;;;;;;;;;;;;;10.85;69.02;101159.31;5013976;28;19928;-64
2022/03/27 14:10:57;;;;;;;;;;;;;;;10.90;69.03;101160.38;5027021;28;19944;-64
2022/03/27 14:13:42;;;;;;;;;;;;;;;10.90;69.21;101152.59;5027353;28;20451;-64
2022/03/27 14:16:27;;;;;;;;;;;;;;;10.93;68.83;101147.47;5027503;28;20027;-64
2022/03/27 14:19:11;;;;;;;;;;;;;;;10.91;69.26;101149.13;5013821;28;19929;-64
2022/03/27 14:21:56;;;;;;;;;;;;;;;10.93;69.03;101140.59;5026972;28;19933;-64
2022/03/27 14:24:40;;;;;;;;;;;;;;;10.98;69.15;101145.06;5027109;28;20288;-64